createdAt,value
2023-05-10T00:00:55.771Z,14.68
2023-05-10T00:03:22.370Z,14.69
2023-05-10T00:05:49.027Z,14.69
2023-05-10T00:08:15.623Z,14.68
2023-05-10T00:10:42.164Z,14.67
2023-05-10T00:13:11.648Z,14.65
2023-05-10T00:15:38.187Z,14.65
2023-05-10T00:18:04.794Z,14.65
2023-05-10T00:20:31.396Z,14.67
2023-05-10T00:22:57.900Z,14.68
2023-05-10T00:25:24.548Z,14.66
2023-05-10T00:27:51.107Z,14.66
2023-05-10T00:30:19.859Z,14.63
2023-05-10T00:32:46.376Z,14.64
2023-05-10T00:35:12.790Z,14.63
2023-05-10T00:37:39.208Z,14.63
2023-05-10T00:40:07.326Z,14.62
2023-05-10T00:42:33.809Z,14.60
2023-05-10T00:45:03.311Z,14.59
2023-05-10T00:47:33.223Z,14.58
2023-05-10T00:50:01.580Z,14.60
2023-05-10T00:52:29.986Z,14.59
2023-05-10T00:54:57.731Z,14.61
2023-05-10T00:57:25.268Z,14.58
2023-05-10T00:59:52.220Z,14.60
2023-05-10T01:02:18.829Z,14.59
2023-05-10T01:04:45.205Z,14.57
2023-05-10T01:07:12.017Z,14.56
2023-05-10T01:09:38.597Z,14.57
2023-05-10T01:12:10.084Z,14.57
2023-05-10T01:14:37.389Z,14.59
2023-05-10T01:17:06.014Z,14.61
2023-05-10T01:19:35.922Z,14.59
2023-05-10T01:22:23.673Z,14.61
2023-05-10T01:25:27.949Z,14.59
2023-05-10T01:28:16.330Z,14.55
2023-05-10T01:31:09.527Z,14.52
2023-05-10T01:33:55.816Z,14.50
2023-05-10T01:36:40.325Z,14.48
2023-05-10T01:39:15.799Z,14.48
2023-05-10T01:42:01.372Z,14.44
2023-05-10T01:44:41.155Z,14.44
2023-05-10T01:47:18.308Z,14.44
2023-05-10T01:49:50.428Z,14.45
2023-05-10T01:52:20.333Z,14.48
2023-05-10T01:54:54.852Z,14.47
2023-05-10T01:57:23.105Z,14.48
2023-05-10T01:59:51.577Z,14.47
2023-05-10T02:02:21.152Z,14.46
2023-05-10T02:04:50.468Z,14.47
2023-05-10T02:07:17.565Z,14.49
2023-05-10T02:09:48.863Z,14.49
2023-05-10T02:12:16.510Z,14.52
2023-05-10T02:14:44.348Z,14.53
2023-05-10T02:17:12.425Z,14.53
2023-05-10T02:19:42.577Z,14.55
2023-05-10T02:22:09.899Z,14.55
2023-05-10T02:24:38.328Z,14.57
2023-05-10T02:27:05.929Z,14.57
2023-05-10T02:29:34.431Z,14.55
2023-05-10T02:32:02.501Z,14.54
2023-05-10T02:34:29.879Z,14.54
2023-05-10T02:36:57.296Z,14.54
2023-05-10T02:39:28.462Z,14.54
2023-05-10T02:41:56.465Z,14.49
2023-05-10T02:44:24.115Z,14.49
2023-05-10T02:46:50.878Z,14.48
2023-05-10T02:49:17.472Z,14.45
2023-05-10T02:51:53.855Z,14.41
2023-05-10T02:54:25.242Z,14.36
2023-05-10T02:56:57.220Z,14.33
2023-05-10T02:59:23.539Z,14.31
2023-05-10T03:01:50.119Z,14.27
2023-05-10T03:04:16.802Z,14.24
2023-05-10T03:06:43.393Z,14.23
2023-05-10T03:09:14.311Z,14.24
2023-05-10T03:11:48.273Z,14.24
2023-05-10T03:14:23.398Z,14.25
2023-05-10T03:17:19.353Z,14.25
2023-05-10T03:20:05.347Z,14.23
2023-05-10T03:22:37.890Z,14.18
2023-05-10T03:25:07.831Z,14.17
2023-05-10T03:27:38.815Z,14.18
2023-05-10T03:30:12.693Z,14.18
2023-05-10T03:32:39.778Z,14.16
2023-05-10T03:35:16.740Z,14.15
2023-05-10T03:37:43.241Z,14.15
2023-05-10T03:40:13.020Z,14.13
2023-05-10T03:42:39.529Z,14.10
2023-05-10T03:45:06.834Z,14.08
2023-05-10T03:47:33.413Z,14.04
2023-05-10T03:50:03.398Z,13.94
2023-05-10T03:52:29.962Z,13.97
2023-05-10T03:54:56.399Z,13.98
2023-05-10T03:57:25.685Z,13.98
2023-05-10T03:59:52.212Z,13.97
2023-05-10T04:02:18.721Z,13.95
2023-05-10T04:04:45.180Z,13.93
2023-05-10T04:07:11.622Z,13.88
2023-05-10T04:09:38.085Z,13.89
2023-05-10T04:12:04.657Z,13.84
2023-05-10T04:14:31.070Z,13.87
2023-05-10T04:17:00.419Z,13.89
2023-05-10T04:19:31.250Z,13.91
2023-05-10T04:21:57.728Z,13.92
2023-05-10T04:24:24.487Z,13.92
2023-05-10T04:26:51.586Z,13.93
2023-05-10T04:29:19.465Z,13.93
2023-05-10T04:31:46.063Z,13.93
2023-05-10T04:34:14.937Z,13.94
2023-05-10T04:36:41.476Z,13.97
2023-05-10T04:39:07.997Z,13.97
2023-05-10T04:41:34.446Z,13.98
2023-05-10T04:44:00.870Z,14.01
2023-05-10T04:46:27.530Z,14.04
2023-05-10T04:49:01.141Z,14.07
2023-05-10T04:51:27.624Z,14.08
2023-05-10T04:54:05.322Z,14.11
2023-05-10T04:56:32.774Z,14.10
2023-05-10T04:58:59.217Z,14.10
2023-05-10T05:01:25.693Z,14.08
2023-05-10T05:03:53.861Z,14.08
2023-05-10T05:06:21.876Z,14.07
2023-05-10T05:08:50.239Z,14.07
2023-05-10T05:11:16.993Z,14.05
2023-05-10T05:13:43.680Z,14.03
2023-05-10T05:16:10.098Z,13.99
2023-05-10T05:18:36.529Z,13.94
2023-05-10T05:21:03.171Z,13.93
2023-05-10T05:23:29.692Z,13.88
2023-05-10T05:25:56.229Z,13.83
2023-05-10T05:28:22.798Z,13.82
2023-05-10T05:30:49.267Z,13.84
2023-05-10T05:33:16.512Z,13.83
2023-05-10T05:35:45.652Z,13.84
2023-05-10T05:38:12.319Z,13.85
2023-05-10T05:40:38.768Z,13.85
2023-05-10T05:43:05.213Z,13.87
2023-05-10T05:45:31.821Z,13.90
2023-05-10T05:47:58.384Z,13.92
2023-05-10T05:50:24.955Z,13.95
2023-05-10T05:52:52.045Z,13.93
2023-05-10T05:55:20.968Z,13.88
2023-05-10T05:57:47.399Z,13.84
2023-05-10T06:00:14.337Z,13.84
2023-05-10T06:02:40.862Z,13.81
2023-05-10T06:05:07.856Z,13.80
2023-05-10T06:07:34.365Z,13.81
2023-05-10T06:10:04.171Z,13.79
2023-05-10T06:12:30.640Z,13.78
2023-05-10T06:14:57.082Z,13.79
2023-05-10T06:17:23.536Z,13.78
2023-05-10T06:19:50.103Z,13.82
2023-05-10T06:22:16.671Z,13.82
2023-05-10T06:24:43.184Z,13.85
2023-05-10T06:27:09.732Z,13.88
2023-05-10T06:29:36.139Z,13.88
2023-05-10T06:32:02.557Z,13.85
2023-05-10T06:34:28.954Z,13.89
2023-05-10T06:36:55.347Z,13.89
2023-05-10T06:39:22.012Z,13.92
2023-05-10T06:41:48.413Z,13.95
2023-05-10T06:44:14.973Z,13.93
2023-05-10T06:46:42.569Z,13.99
2023-05-10T06:49:09.453Z,14.01
2023-05-10T06:51:35.895Z,14.03
2023-05-10T06:54:02.876Z,14.05
2023-05-10T06:56:29.331Z,14.07
2023-05-10T06:58:55.773Z,14.15
2023-05-10T07:01:22.211Z,14.19
2023-05-10T07:03:48.786Z,14.23
2023-05-10T07:06:29.305Z,14.27
2023-05-10T07:08:59.788Z,14.28
2023-05-10T07:11:26.258Z,14.24
2023-05-10T07:13:52.720Z,14.25
2023-05-10T07:16:20.803Z,14.27
2023-05-10T07:18:51.375Z,14.27
2023-05-10T07:21:17.991Z,14.31
2023-05-10T07:23:45.242Z,14.31
2023-05-10T07:26:12.528Z,14.27
2023-05-10T07:28:39.143Z,14.29
2023-05-10T07:31:05.767Z,14.30
2023-05-10T07:33:32.232Z,14.33
2023-05-10T07:35:58.672Z,14.31
2023-05-10T07:38:25.344Z,14.33
2023-05-10T07:40:51.865Z,14.34
2023-05-10T07:43:18.296Z,14.33
2023-05-10T07:45:45.961Z,14.27
2023-05-10T07:48:12.481Z,14.22
2023-05-10T07:50:38.972Z,14.21
2023-05-10T07:53:05.389Z,14.23
2023-05-10T07:55:31.806Z,14.22
2023-05-10T07:57:58.226Z,14.26
2023-05-10T08:00:24.607Z,14.32
2023-05-10T08:02:51.315Z,14.37
2023-05-10T08:05:18.122Z,14.42
2023-05-10T08:07:44.708Z,14.47
2023-05-10T08:10:12.328Z,14.57
2023-05-10T08:12:39.385Z,14.65
2023-05-10T08:15:06.621Z,14.74
2023-05-10T08:17:33.530Z,14.83
2023-05-10T08:20:00.148Z,14.87
2023-05-10T08:22:27.064Z,14.88
2023-05-10T08:24:53.657Z,14.89
2023-05-10T08:27:20.127Z,14.97
2023-05-10T08:29:50.521Z,15.05
2023-05-10T08:32:17.612Z,15.15
2023-05-10T08:34:44.139Z,15.20
2023-05-10T08:37:13.980Z,15.29
2023-05-10T08:39:40.827Z,15.34
2023-05-10T08:42:08.061Z,15.43
2023-05-10T08:44:36.653Z,15.47
2023-05-10T08:47:08.014Z,15.47
2023-05-10T08:49:34.706Z,15.44
2023-05-10T08:52:05.025Z,15.47
2023-05-10T08:54:34.147Z,15.53
2023-05-10T08:57:01.362Z,15.57
2023-05-10T08:59:28.719Z,15.68
2023-05-10T09:01:58.582Z,15.76
2023-05-10T09:04:25.318Z,15.86
2023-05-10T09:06:51.923Z,15.87
2023-05-10T09:09:19.181Z,15.86
2023-05-10T09:11:46.047Z,15.84
2023-05-10T09:14:13.543Z,15.77
2023-05-10T09:16:42.428Z,15.79
2023-05-10T09:19:09.666Z,15.74
2023-05-10T09:21:42.210Z,15.71
2023-05-10T09:24:12.962Z,15.72
2023-05-10T09:26:49.668Z,15.74
2023-05-10T09:29:19.292Z,15.73
2023-05-10T09:31:48.587Z,15.76
2023-05-10T09:34:29.593Z,15.85
2023-05-10T09:37:05.266Z,15.94
2023-05-10T09:39:36.552Z,16.08
2023-05-10T09:42:09.544Z,16.31
2023-05-10T09:44:36.762Z,16.51
2023-05-10T09:47:03.642Z,16.73
2023-05-10T09:49:30.836Z,16.90
2023-05-10T09:52:02.300Z,16.88
2023-05-10T09:54:29.051Z,16.94
2023-05-10T09:56:55.541Z,16.90
2023-05-10T09:59:22.107Z,16.89
2023-05-10T10:01:52.522Z,16.91
2023-05-10T10:04:20.810Z,16.90
2023-05-10T10:06:47.283Z,16.90
2023-05-10T10:09:15.016Z,16.91
2023-05-10T10:11:42.394Z,16.97
2023-05-10T10:14:08.985Z,17.00
2023-05-10T10:16:35.984Z,17.06
2023-05-10T10:19:02.809Z,17.06
2023-05-10T10:21:29.506Z,17.04
2023-05-10T10:23:58.692Z,17.05
2023-05-10T10:26:26.031Z,17.13
2023-05-10T10:28:58.281Z,17.11
2023-05-10T10:32:20.605Z,17.11
2023-05-10T10:34:47.987Z,17.13
2023-05-10T10:37:17.318Z,17.16
2023-05-10T10:39:43.718Z,17.17
2023-05-10T10:42:10.327Z,17.17
2023-05-10T10:44:39.022Z,17.24
2023-05-10T10:47:19.637Z,17.26
2023-05-10T10:50:03.442Z,17.33
2023-05-10T10:52:41.196Z,17.41
2023-05-10T10:55:19.402Z,17.47
2023-05-10T10:57:52.522Z,17.55
2023-05-10T11:00:23.022Z,17.59
2023-05-10T11:02:51.117Z,17.63
2023-05-10T11:05:50.506Z,17.71
2023-05-10T11:08:28.238Z,17.80
2023-05-10T11:11:09.960Z,17.86
2023-05-10T11:13:41.018Z,17.82
2023-05-10T11:16:28.020Z,17.69
2023-05-10T11:18:58.511Z,17.61
2023-05-10T11:21:25.039Z,17.50
2023-05-10T11:23:58.689Z,17.45
2023-05-10T11:26:33.623Z,17.38
2023-05-10T11:29:01.724Z,17.35
2023-05-10T11:31:29.574Z,17.35
2023-05-10T11:33:58.035Z,17.29
2023-05-10T11:36:30.489Z,17.31
2023-05-10T11:38:57.990Z,17.32
2023-05-10T11:41:25.814Z,17.25
2023-05-10T11:43:54.283Z,17.30
2023-05-10T11:46:23.056Z,17.31
2023-05-10T11:48:55.026Z,17.36
2023-05-10T11:51:22.991Z,17.44
2023-05-10T11:53:53.817Z,17.51
2023-05-10T11:56:21.662Z,17.50
2023-05-10T11:58:56.427Z,17.70
2023-05-10T12:01:24.853Z,17.72
2023-05-10T12:03:52.531Z,17.69
2023-05-10T12:06:22.367Z,17.68
2023-05-10T12:08:53.432Z,17.69
2023-05-10T12:11:22.586Z,17.76
2023-05-10T12:13:49.668Z,17.82
2023-05-10T12:16:27.071Z,17.84
2023-05-10T12:18:57.958Z,17.91
2023-05-10T12:21:25.377Z,17.98
2023-05-10T12:23:54.358Z,18.04
2023-05-10T12:26:25.782Z,18.05
2023-05-10T12:28:52.214Z,18.11
2023-05-10T12:31:22.176Z,18.18
2023-05-10T12:33:50.227Z,18.24
2023-05-10T12:36:17.816Z,18.37
2023-05-10T12:38:50.874Z,18.39
2023-05-10T12:41:18.882Z,18.36
2023-05-10T12:43:49.203Z,18.34
2023-05-10T12:46:17.456Z,18.32
2023-05-10T12:48:45.427Z,18.26
2023-05-10T12:51:14.059Z,18.17
2023-05-10T12:53:43.676Z,18.12
2023-05-10T12:56:11.744Z,18.07
2023-05-10T12:58:39.308Z,18.07
2023-05-10T13:01:06.289Z,18.04
2023-05-10T13:03:33.243Z,17.99
2023-05-10T13:05:59.618Z,17.87
2023-05-10T13:08:26.217Z,17.80
2023-05-10T13:10:53.090Z,17.71
2023-05-10T13:13:19.512Z,17.63
2023-05-10T13:15:46.036Z,17.48
2023-05-10T13:18:12.545Z,17.40
2023-05-10T13:20:39.181Z,17.28
2023-05-10T13:23:05.667Z,17.19
2023-05-10T13:25:35.944Z,17.09
2023-05-10T13:28:02.976Z,17.02
2023-05-10T13:30:30.225Z,16.97
2023-05-10T13:32:56.727Z,17.01
2023-05-10T13:35:23.275Z,17.03
2023-05-10T13:37:50.256Z,17.00
2023-05-10T13:40:17.731Z,17.00
2023-05-10T13:42:44.351Z,16.96
2023-05-10T13:45:13.257Z,16.92
2023-05-10T13:47:39.797Z,16.95
2023-05-10T13:50:07.106Z,16.93
2023-05-10T13:52:33.599Z,16.94
2023-05-10T13:55:00.087Z,16.98
2023-05-10T13:57:26.633Z,16.95
2023-05-10T13:59:53.829Z,17.04
2023-05-10T14:02:21.140Z,17.12
2023-05-10T14:04:47.800Z,17.25
2023-05-10T14:07:14.220Z,17.33
2023-05-10T14:09:40.761Z,17.38
2023-05-10T14:12:07.140Z,17.50
2023-05-10T14:14:33.636Z,17.57
2023-05-10T14:17:00.472Z,17.66
2023-05-10T14:19:28.023Z,17.72
2023-05-10T14:21:54.490Z,17.82
2023-05-10T14:24:21.149Z,17.88
2023-05-10T14:26:47.488Z,17.89
2023-05-10T14:29:15.544Z,17.81
2023-05-10T14:31:42.062Z,17.76
2023-05-10T14:34:08.580Z,17.72
2023-05-10T14:36:35.006Z,17.70
2023-05-10T14:39:01.419Z,17.70
2023-05-10T14:41:27.889Z,17.70
2023-05-10T14:43:54.256Z,17.71
2023-05-10T14:46:20.850Z,17.76
2023-05-10T14:48:47.346Z,17.84
2023-05-10T14:51:13.871Z,17.92
2023-05-10T14:53:40.480Z,17.94
2023-05-10T14:56:07.328Z,17.92
2023-05-10T14:58:34.393Z,17.89
2023-05-10T15:01:02.514Z,17.88
2023-05-10T15:03:29.889Z,17.80
2023-05-10T15:05:58.525Z,17.75
2023-05-10T15:08:25.637Z,17.67
2023-05-10T15:10:52.791Z,17.68
2023-05-10T15:13:19.207Z,17.69
2023-05-10T15:15:45.703Z,17.70
2023-05-10T15:18:12.581Z,17.70
2023-05-10T15:20:39.179Z,17.71
2023-05-10T15:23:05.688Z,17.70
2023-05-10T15:25:35.169Z,17.78
2023-05-10T15:28:03.395Z,17.83
2023-05-10T15:30:30.040Z,17.95
2023-05-10T15:32:56.797Z,18.09
2023-05-10T15:35:23.308Z,18.15
2023-05-10T15:37:50.284Z,18.24
2023-05-10T15:40:16.923Z,18.25
2023-05-10T15:42:43.362Z,18.33
2023-05-10T15:45:15.453Z,18.35
2023-05-10T15:47:42.215Z,18.41
2023-05-10T15:50:09.655Z,18.38
2023-05-10T15:52:36.168Z,18.39
2023-05-10T15:55:04.117Z,18.44
2023-05-10T15:57:30.634Z,18.49
2023-05-10T15:59:57.049Z,18.50
2023-05-10T16:02:23.783Z,18.53
2023-05-10T16:04:50.301Z,18.51
2023-05-10T16:07:16.853Z,18.44
2023-05-10T16:09:43.324Z,18.50
2023-05-10T16:12:10.975Z,18.48
2023-05-10T16:14:44.619Z,18.41
2023-05-10T16:17:11.564Z,18.40
2023-05-10T16:19:38.124Z,18.40
2023-05-10T16:22:05.062Z,18.41
2023-05-10T16:24:31.502Z,18.41
2023-05-10T16:26:57.896Z,18.43
2023-05-10T16:29:24.292Z,18.44
2023-05-10T16:31:50.719Z,18.45
2023-05-10T16:34:17.305Z,18.44
2023-05-10T16:36:45.868Z,18.41
2023-05-10T16:39:12.421Z,18.38
2023-05-10T16:41:38.797Z,18.37
2023-05-10T16:44:05.401Z,18.34
2023-05-10T16:46:31.949Z,18.32
2023-05-10T16:48:59.814Z,18.29
2023-05-10T16:51:26.979Z,18.25
2023-05-10T16:53:53.661Z,18.21
2023-05-10T16:56:21.753Z,18.17
2023-05-10T16:58:49.936Z,18.13
2023-05-10T17:01:17.206Z,18.10
2023-05-10T17:03:43.877Z,18.08
2023-05-10T17:06:14.547Z,17.98
2023-05-10T17:08:40.997Z,17.90
2023-05-10T17:11:07.733Z,17.85
2023-05-10T17:13:34.233Z,17.82
2023-05-10T17:16:04.108Z,17.81
2023-05-10T17:18:33.149Z,17.80
2023-05-10T17:20:59.608Z,17.78
2023-05-10T17:23:28.485Z,17.73
2023-05-10T17:25:55.108Z,17.70
2023-05-10T17:28:21.737Z,17.70
2023-05-10T17:30:55.694Z,17.69
2023-05-10T17:33:22.106Z,17.69
2023-05-10T17:35:48.990Z,17.68
2023-05-10T17:38:15.989Z,17.64
2023-05-10T17:40:42.861Z,17.61
2023-05-10T17:43:10.907Z,17.56
2023-05-10T17:45:37.553Z,17.48
2023-05-10T17:48:04.385Z,17.43
2023-05-10T17:50:32.753Z,17.40
2023-05-10T17:52:59.354Z,17.36
2023-05-10T17:55:30.088Z,17.32
2023-05-10T17:57:59.448Z,17.27
2023-05-10T18:00:26.099Z,17.24
2023-05-10T18:02:52.703Z,17.21
2023-05-10T18:05:19.490Z,17.13
2023-05-10T18:07:46.466Z,17.12
2023-05-10T18:10:12.869Z,17.12
2023-05-10T18:12:39.537Z,17.08
2023-05-10T18:15:06.595Z,17.09
2023-05-10T18:17:34.977Z,17.12
2023-05-10T18:20:02.144Z,17.15
2023-05-10T18:22:28.648Z,17.19
2023-05-10T18:24:55.237Z,17.21
2023-05-10T18:27:25.021Z,17.18
2023-05-10T18:29:52.280Z,17.17
2023-05-10T18:32:20.932Z,17.16
2023-05-10T18:34:47.341Z,17.12
2023-05-10T18:37:14.132Z,17.08
2023-05-10T18:39:40.862Z,17.01
2023-05-10T18:42:08.461Z,17.01
2023-05-10T18:44:34.941Z,17.01
2023-05-10T18:47:01.498Z,16.96
2023-05-10T18:49:29.201Z,16.91
2023-05-10T18:51:55.655Z,16.86
2023-05-10T18:54:22.631Z,16.81
2023-05-10T18:56:49.810Z,16.78
2023-05-10T18:59:16.608Z,16.75
2023-05-10T19:01:43.260Z,16.71
2023-05-10T19:04:09.828Z,16.70
2023-05-10T19:06:36.356Z,16.69
2023-05-10T19:09:03.280Z,16.65
2023-05-10T19:11:32.290Z,16.65
2023-05-10T19:13:58.826Z,16.65
2023-05-10T19:16:27.391Z,16.65
2023-05-10T19:18:56.401Z,16.65
2023-05-10T19:21:23.504Z,16.61
2023-05-10T19:23:50.056Z,16.58
2023-05-10T19:26:16.591Z,16.58
2023-05-10T19:28:43.032Z,16.57
2023-05-10T19:31:09.625Z,16.53
2023-05-10T19:33:38.343Z,16.54
2023-05-10T19:36:05.529Z,16.55
2023-05-10T19:38:31.920Z,16.52
2023-05-10T19:41:01.293Z,16.50
2023-05-10T19:43:30.657Z,16.48
2023-05-10T19:45:59.194Z,16.45
2023-05-10T19:48:25.978Z,16.45
2023-05-10T19:50:53.665Z,16.42
2023-05-10T19:53:27.309Z,16.41
2023-05-10T19:55:54.920Z,16.40
2023-05-10T19:58:21.473Z,16.40
2023-05-10T20:00:47.943Z,16.39
2023-05-10T20:03:14.446Z,16.36
2023-05-10T20:05:40.871Z,16.36
2023-05-10T20:08:07.903Z,16.35
2023-05-10T20:10:34.286Z,16.35
2023-05-10T20:13:01.044Z,16.35
2023-05-10T20:15:29.451Z,16.34
2023-05-10T20:17:56.204Z,16.33
2023-05-10T20:20:22.751Z,16.29
2023-05-10T20:22:49.693Z,16.27
2023-05-10T20:25:17.621Z,16.24
2023-05-10T20:27:44.724Z,16.19
2023-05-10T20:30:11.847Z,16.13
2023-05-10T20:32:38.893Z,16.09
2023-05-10T20:35:06.169Z,16.05
2023-05-10T20:37:33.071Z,15.99
2023-05-10T20:39:59.951Z,15.95
2023-05-10T20:42:26.429Z,15.92
2023-05-10T20:44:52.867Z,15.89
2023-05-10T20:47:19.416Z,15.86
2023-05-10T20:49:46.050Z,15.87
2023-05-10T20:52:12.686Z,15.88
2023-05-10T20:54:42.130Z,15.87
2023-05-10T20:57:14.143Z,15.85
2023-05-10T20:59:40.637Z,15.80
2023-05-10T21:02:07.057Z,15.77
2023-05-10T21:04:33.770Z,15.76
2023-05-10T21:07:00.275Z,15.77
2023-05-10T21:09:26.749Z,15.78
2023-05-10T21:11:55.898Z,15.81
2023-05-10T21:14:22.345Z,15.81
2023-05-10T21:16:51.072Z,15.82
2023-05-10T21:19:17.517Z,15.83
2023-05-10T21:21:43.905Z,15.84
2023-05-10T21:24:10.473Z,15.86
2023-05-10T21:26:37.271Z,15.84
2023-05-10T21:29:04.752Z,15.83
2023-05-10T21:31:31.761Z,15.82
2023-05-10T21:33:58.319Z,15.80
2023-05-10T21:36:25.638Z,15.79
2023-05-10T21:38:52.337Z,15.73
2023-05-10T21:41:18.825Z,15.71
2023-05-10T21:43:45.327Z,15.67
2023-05-10T21:46:13.381Z,15.64
2023-05-10T21:48:39.892Z,15.63
2023-05-10T21:51:06.410Z,15.64
2023-05-10T21:53:33.515Z,15.66
2023-05-10T21:55:59.958Z,15.64
2023-05-10T21:58:26.473Z,15.62
2023-05-10T22:00:52.988Z,15.64
2023-05-10T22:03:21.505Z,15.59
2023-05-10T22:05:48.170Z,15.56
2023-05-10T22:08:14.868Z,15.62
2023-05-10T22:10:42.722Z,15.62
2023-05-10T22:13:09.254Z,15.61
2023-05-10T22:15:36.618Z,15.61
2023-05-10T22:18:03.398Z,15.60
2023-05-10T22:20:29.910Z,15.56
2023-05-10T22:22:56.413Z,15.54
2023-05-10T22:25:22.992Z,15.49
2023-05-10T22:27:49.581Z,15.48
2023-05-10T22:30:19.859Z,15.47
2023-05-10T22:32:49.148Z,15.44
2023-05-10T22:35:15.631Z,15.41
2023-05-10T22:37:42.213Z,15.38
2023-05-10T22:40:09.256Z,15.37
2023-05-10T22:42:35.710Z,15.35
2023-05-10T22:45:02.163Z,15.34
2023-05-10T22:47:28.607Z,15.33
2023-05-10T22:49:55.585Z,15.32
2023-05-10T22:52:22.044Z,15.32
2023-05-10T22:54:48.495Z,15.36
2023-05-10T22:57:15.215Z,15.39
2023-05-10T22:59:42.455Z,15.36
2023-05-10T23:02:09.572Z,15.48
2023-05-10T23:04:36.297Z,15.50
2023-05-10T23:07:02.757Z,15.53
2023-05-10T23:09:29.139Z,15.55
2023-05-10T23:11:55.741Z,15.56
2023-05-10T23:14:22.479Z,15.58
2023-05-10T23:16:48.920Z,15.58
2023-05-10T23:19:16.587Z,15.59
2023-05-10T23:21:43.042Z,15.58
2023-05-10T23:24:09.569Z,15.61
2023-05-10T23:26:36.233Z,15.58
2023-05-10T23:29:02.637Z,15.55
2023-05-10T23:31:29.245Z,15.55
2023-05-10T23:33:55.908Z,15.53
2023-05-10T23:36:22.514Z,15.52
2023-05-10T23:38:48.957Z,15.52
2023-05-10T23:41:15.532Z,15.54
2023-05-10T23:43:42.006Z,15.54
2023-05-10T23:46:08.563Z,15.55
2023-05-10T23:48:37.432Z,15.57
2023-05-10T23:51:04.036Z,15.56
2023-05-10T23:53:30.564Z,15.60
2023-05-10T23:55:57.349Z,15.60
2023-05-10T23:58:23.897Z,15.60
